Map

Track Data

SID SEASON NUMBER BASIN SUBBASIN NAME ISO_TIME NATURE LAT LON WMO_WIND WMO_PRES WMO_AGENCY TRACK_TYPE DIST2LAND LANDFALL IFLAG USA_AGENCY USA_ATCF_ID USA_LAT USA_LON USA_RECORD USA_STATUS USA_WIND USA_PRES USA_SSHS USA_R34_NE USA_R34_SE USA_R34_SW USA_R34_NW USA_R50_NE USA_R50_SE USA_R50_SW USA_R50_NW USA_R64_NE USA_R64_SE USA_R64_SW USA_R64_NW USA_POCI USA_ROCI USA_RMW USA_EYE TOKYO_LAT TOKYO_LON TOKYO_GRADE TOKYO_WIND TOKYO_PRES TOKYO_R50_DIR TOKYO_R50_LONG TOKYO_R50_SHORT TOKYO_R30_DIR TOKYO_R30_LONG TOKYO_R30_SHORT TOKYO_LAND CMA_LAT CMA_LON CMA_CAT CMA_WIND CMA_PRES HKO_LAT HKO_LON HKO_CAT HKO_WIND HKO_PRES NEWDELHI_LAT NEWDELHI_LON NEWDELHI_GRADE NEWDELHI_WIND NEWDELHI_PRES NEWDELHI_CI NEWDELHI_DP NEWDELHI_POCI REUNION_LAT REUNION_LON REUNION_TYPE REUNION_WIND REUNION_PRES REUNION_TNUM REUNION_CI REUNION_RMW REUNION_R34_NE REUNION_R34_SE REUNION_R34_SW REUNION_R34_NW REUNION_R50_NE REUNION_R50_SE REUNION_R50_SW REUNION_R50_NW REUNION_R64_NE REUNION_R64_SE REUNION_R64_SW REUNION_R64_NW BOM_LAT BOM_LON BOM_TYPE BOM_WIND BOM_PRES BOM_TNUM BOM_CI BOM_RMW BOM_R34_NE BOM_R34_SE BOM_R34_SW BOM_R34_NW BOM_R50_NE BOM_R50_SE BOM_R50_SW BOM_R50_NW BOM_R64_NE BOM_R64_SE BOM_R64_SW BOM_R64_NW BOM_ROCI BOM_POCI BOM_EYE BOM_POS_METHOD BOM_PRES_METHOD NADI_LAT NADI_LON NADI_CAT NADI_WIND NADI_PRES WELLINGTON_LAT WELLINGTON_LON WELLINGTON_WIND WELLINGTON_PRES DS824_LAT DS824_LON DS824_STAGE DS824_WIND DS824_PRES TD9636_LAT TD9636_LON TD9636_STAGE TD9636_WIND TD9636_PRES TD9635_LAT TD9635_LON TD9635_WIND TD9635_PRES TD9635_ROCI NEUMANN_LAT NEUMANN_LON NEUMANN_CLASS NEUMANN_WIND NEUMANN_PRES MLC_LAT MLC_LON MLC_CLASS MLC_WIND MLC_PRES USA_GUST BOM_GUST BOM_GUST_PER REUNION_GUST REUNION_GUST_PER USA_SEAHGT USA_SEARAD_NE USA_SEARAD_SE USA_SEARAD_SW USA_SEARAD_NW STORM_SPEED STORM_DIR
1893259N33310 1893 44 NA NA NOT_NAMED 1893-09-15 12:00:00 TS 32.5000 -50.5000 main 1586 1586 _____________O -1 32.5000 -50.5000 TS 45 2 90
1893259N33310 1893 44 NA NA NOT_NAMED 1893-09-15 15:00:00 TS 32.5000 -50.4100 main 1587 1587 _____________P -1 32.5000 -50.4100 TS 45 2 90
1893259N33310 1893 44 NA NA NOT_NAMED 1893-09-15 18:00:00 TS 32.5000 -50.3000 main 1588 1588 _____________O -1 32.5000 -50.3000 TS 45 2 90
1893259N33310 1893 44 NA NA NOT_NAMED 1893-09-15 21:00:00 TS 32.5000 -50.1575 main 1589 1589 _____________P -1 32.5000 -50.1575 TS 45 3 90
1893259N33310 1893 44 NA NA NOT_NAMED 1893-09-16 00:00:00 TS 32.5000 -50.0000 main 1592 1592 _____________O -1 32.5000 -50.0000 TS 45 3 90
1893259N33310 1893 44 NA NA NOT_NAMED 1893-09-16 03:00:00 TS 32.5000 -49.8425 main 1595 1595 _____________P -1 32.5000 -49.8425 TS 45 3 90
1893259N33310 1893 44 NA NA NOT_NAMED 1893-09-16 06:00:00 TS 32.5000 -49.7000 main 1597 1597 _____________O -1 32.5000 -49.7000 TS 45 2 112
1893259N33310 1893 44 NA NA NOT_NAMED 1893-09-16 09:00:00 TS 32.4175 -49.5996 main 1609 1600 _____________P -1 32.4175 -49.5996 TS 45 2 90
1893259N33310 1893 44 NA NA NOT_NAMED 1893-09-16 12:00:00 TS 32.5000 -49.5000 main 1600 1558 _____________O -1 32.5000 -49.5000 TS 45 6 21
1893259N33310 1893 44 NA NA NOT_NAMED 1893-09-16 15:00:00 TS 32.9601 -49.3504 main 1547 1485 _____________P -1 32.9601 -49.3504 TS 45 11 13
1893259N33310 1893 44 NA NA NOT_NAMED 1893-09-16 18:00:00 TS 33.6000 -49.2000 main 1485 1422 _____________O -1 33.6000 -49.2000 TS 45 13 10
1893259N33310 1893 44 NA NA NOT_NAMED 1893-09-16 21:00:00 TS 34.1999 -49.0996 main 1422 1359 _____________P -1 34.1999 -49.0996 TS 45 12 8
1893259N33310 1893 44 NA NA NOT_NAMED 1893-09-17 00:00:00 TS 34.8000 -49.0000 main 1359 1307 _____________O -1 34.8000 -49.0000 TS 45 12 10
1893259N33310 1893 44 NA NA NOT_NAMED 1893-09-17 03:00:00 TS 35.3575 -48.8501 main 1296 1247 _____________P -1 35.3575 -48.8501 TS 42 11 13
1893259N33310 1893 44 NA NA NOT_NAMED 1893-09-17 06:00:00 TS 35.9000 -48.7000 main 1247 1196 _____________O -1 35.9000 -48.7000 TS 40 11 12
1893259N33310 1893 44 NA NA NOT_NAMED 1893-09-17 09:00:00 TS 36.4275 -48.5775 main 1196 1135 _____________P -1 36.4275 -48.5775 TS 37 11 8
1893259N33310 1893 44 NA NA NOT_NAMED 1893-09-17 12:00:00 TS 37.0000 -48.5000 main 1135 1072 _____________O -1 37.0000 -48.5000 TS 35 13 2
1893259N33310 1893 44 NA NA NOT_NAMED 1893-09-17 15:00:00 TS 37.6775 -48.4992 main 1062 989 _____________P -1 37.6775 -48.4992 TS 35 14 0
1893259N33310 1893 44 NA NA NOT_NAMED 1893-09-17 18:00:00 TS 38.4000 -48.5000 main 989 920 _____________O -1 38.4000 -48.5000 TS 35 14 3
1893259N33310 1893 44 NA NA NOT_NAMED 1893-09-17 21:00:00 TS 39.1000 -48.4152 main 920 852 _____________P -1 39.1000 -48.4152 TS 35 14 6
1893259N33310 1893 44 NA NA NOT_NAMED 1893-09-18 00:00:00 ET 39.8000 -48.3000 main 852 787 _____________O -1 39.8000 -48.3000 EX 35 14 7
1893259N33310 1893 44 NA NA NOT_NAMED 1893-09-18 03:00:00 ET 40.5075 -48.1926 main 787 724 _____________P -1 40.5075 -48.1926 EX 32 14 6
1893259N33310 1893 44 NA NA NOT_NAMED 1893-09-18 06:00:00 ET 41.2000 -48.1000 main 724 674 _____________O -1 41.2000 -48.1000 EX 30 14 5
1893259N33310 1893 44 NA NA NOT_NAMED 1893-09-18 09:00:00 ET 41.8600 -48.0400 main 665 613 _____________P -1 41.8600 -48.0400 EX 30 13 4
1893259N33310 1893 44 NA NA NOT_NAMED 1893-09-18 12:00:00 ET 42.5000 -48.0000 main 613 _____________O -1 42.5000 -48.0000 EX 30 13 4

About IBTrACS Database

This database is a web-friendly format of International Best Track Archive for Climate Stewardship (IBTrACS), a global best track data archive curated by NOAA dating back to 1842.

Updated: 2021-11-26